WZZ6082 LZIB-EDLW
Flight info
| Callsign | WZZ6082 |
|---|---|
| Flight time | 0h 51m |
| Altitude | 36000 |
| Route | TOVKA DCT DITIS DCT RAPET T170 RUNEN DCT FULNO/N0399F300 T842 IDEWE/N0363F240 T842 ADEMI ADEMI2A |
| Aircraft | A21N/M-SDE2E3FGHIRWXY/LB1 |
Departure
| Time | 2026-04-28 15:15 |
|---|---|
| Airport | M. R. Štefánik Airport (LZIB) |
Arrival
| Time | 2026-04-28 16:06 |
|---|---|
| Airport | Dortmund Airport (EDLW) |
| Time | Latitude | Longitude | Altitude | Speed | Heading |
|---|---|---|---|---|---|
| 2026-04-28 14:33 | 48.16973 | 17.20176 | 431 ft | 0 kts | 314° |
| 2026-04-28 15:08 | 48.16961 | 17.20196 | 422 ft | 4 kts | 303° |
| 2026-04-28 15:08 | 48.16951 | 17.20232 | 422 ft | 4 kts | 275° |
| 2026-04-28 15:08 | 48.16955 | 17.20267 | 422 ft | 4 kts | 230° |
| 2026-04-28 15:08 | 48.16962 | 17.20277 | 422 ft | 0 kts | 224° |
| 2026-04-28 15:12 | 48.16960 | 17.20274 | 422 ft | 2 kts | 224° |
| 2026-04-28 15:12 | 48.16951 | 17.20262 | 422 ft | 4 kts | 224° |
| 2026-04-28 15:12 | 48.16923 | 17.20220 | 429 ft | 7 kts | 224° |
| 2026-04-28 15:12 | 48.16880 | 17.20160 | 429 ft | 10 kts | 212° |
| 2026-04-28 15:13 | 48.16816 | 17.20205 | 432 ft | 12 kts | 133° |
| 2026-04-28 15:13 | 48.16751 | 17.20302 | 431 ft | 14 kts | 137° |
| 2026-04-28 15:13 | 48.16676 | 17.20414 | 438 ft | 16 kts | 133° |
| 2026-04-28 15:13 | 48.16595 | 17.20541 | 438 ft | 15 kts | 134° |
| 2026-04-28 15:14 | 48.16557 | 17.20605 | 435 ft | 7 kts | 110° |
| 2026-04-28 15:14 | 48.16630 | 17.20736 | 438 ft | 47 kts | 43° |
| 2026-04-28 15:14 | 48.17081 | 17.21383 | 429 ft | 131 kts | 43° |
| 2026-04-28 15:14 | 48.17822 | 17.22464 | 831 ft | 153 kts | 43° |
| 2026-04-28 15:15 | 48.18599 | 17.23613 | 1542 ft | 162 kts | 45° |
| 2026-04-28 15:15 | 48.19425 | 17.24812 | 2285 ft | 167 kts | 44° |
| 2026-04-28 15:15 | 48.20265 | 17.26025 | 3060 ft | 169 kts | 44° |
| 2026-04-28 15:15 | 48.21120 | 17.27265 | 3828 ft | 176 kts | 44° |
| 2026-04-28 15:16 | 48.22048 | 17.28572 | 4448 ft | 190 kts | 41° |
| 2026-04-28 15:16 | 48.23247 | 17.29515 | 5049 ft | 204 kts | 13° |
| 2026-04-28 15:16 | 48.24684 | 17.29319 | 5743 ft | 215 kts | 340° |
| 2026-04-28 15:16 | 48.25901 | 17.27969 | 6459 ft | 227 kts | 315° |
| 2026-04-28 15:17 | 48.26765 | 17.25889 | 6811 ft | 254 kts | 286° |
| 2026-04-28 15:17 | 48.26939 | 17.23163 | 7405 ft | 270 kts | 271° |
| 2026-04-28 15:17 | 48.26916 | 17.20320 | 8289 ft | 273 kts | 271° |
| 2026-04-28 15:17 | 48.26900 | 17.17468 | 9245 ft | 274 kts | 271° |
| 2026-04-28 15:18 | 48.27180 | 17.14645 | 10133 ft | 276 kts | 290° |
| 2026-04-28 15:18 | 48.27977 | 17.11930 | 10604 ft | 293 kts | 297° |
| 2026-04-28 15:18 | 48.28919 | 17.09117 | 11122 ft | 307 kts | 297° |
| 2026-04-28 15:18 | 48.29879 | 17.06220 | 11889 ft | 312 kts | 297° |
| 2026-04-28 15:19 | 48.30837 | 17.03285 | 12751 ft | 314 kts | 297° |
| 2026-04-28 15:19 | 48.31794 | 17.00323 | 13647 ft | 316 kts | 296° |
| 2026-04-28 15:19 | 48.32750 | 16.97346 | 14473 ft | 318 kts | 296° |
| 2026-04-28 15:19 | 48.33714 | 16.94338 | 15261 ft | 320 kts | 296° |
| 2026-04-28 15:20 | 48.34682 | 16.91306 | 16023 ft | 323 kts | 296° |
| 2026-04-28 15:20 | 48.35660 | 16.88237 | 16802 ft | 327 kts | 296° |
| 2026-04-28 15:20 | 48.36642 | 16.85145 | 17558 ft | 330 kts | 296° |
| 2026-04-28 15:20 | 48.37643 | 16.81990 | 18147 ft | 339 kts | 296° |
| 2026-04-28 15:21 | 48.38652 | 16.78803 | 18767 ft | 343 kts | 296° |
| 2026-04-28 15:21 | 48.39680 | 16.75553 | 19415 ft | 346 kts | 296° |
| 2026-04-28 15:21 | 48.40716 | 16.72271 | 20052 ft | 348 kts | 296° |
| 2026-04-28 15:21 | 48.41759 | 16.68965 | 20690 ft | 351 kts | 296° |
| 2026-04-28 15:22 | 48.42807 | 16.65636 | 21333 ft | 353 kts | 296° |
| 2026-04-28 15:22 | 48.43864 | 16.62277 | 21978 ft | 356 kts | 296° |
| 2026-04-28 15:22 | 48.44926 | 16.58896 | 22569 ft | 359 kts | 295° |
| 2026-04-28 15:22 | 48.45996 | 16.55486 | 23168 ft | 362 kts | 295° |
| 2026-04-28 15:23 | 48.47075 | 16.52040 | 23746 ft | 365 kts | 295° |
| 2026-04-28 15:23 | 48.48159 | 16.48574 | 24248 ft | 367 kts | 295° |
| 2026-04-28 15:23 | 48.49248 | 16.45082 | 24775 ft | 368 kts | 295° |
| 2026-04-28 15:23 | 48.50339 | 16.41582 | 25298 ft | 369 kts | 295° |
| 2026-04-28 15:24 | 48.51431 | 16.38073 | 25817 ft | 370 kts | 295° |
| 2026-04-28 15:24 | 48.52530 | 16.34546 | 26328 ft | 371 kts | 295° |
| 2026-04-28 15:24 | 48.53627 | 16.31015 | 26824 ft | 373 kts | 295° |
| 2026-04-28 15:24 | 48.54728 | 16.27470 | 27327 ft | 374 kts | 294° |
| 2026-04-28 15:25 | 48.55829 | 16.23909 | 27805 ft | 375 kts | 294° |
| 2026-04-28 15:25 | 48.56933 | 16.20333 | 28272 ft | 376 kts | 294° |
| 2026-04-28 15:25 | 48.58025 | 16.16795 | 28714 ft | 378 kts | 294° |
| 2026-04-28 15:25 | 48.59135 | 16.13192 | 29150 ft | 379 kts | 294° |
| 2026-04-28 15:26 | 48.60254 | 16.09567 | 29577 ft | 381 kts | 294° |
| 2026-04-28 15:26 | 48.61374 | 16.05927 | 30005 ft | 382 kts | 294° |
| 2026-04-28 15:26 | 48.62496 | 16.02279 | 30413 ft | 384 kts | 294° |
| 2026-04-28 15:26 | 48.63625 | 15.98594 | 30608 ft | 389 kts | 294° |
| 2026-04-28 15:27 | 48.64766 | 15.94866 | 30882 ft | 392 kts | 294° |
| 2026-04-28 15:27 | 48.65912 | 15.91119 | 31247 ft | 392 kts | 294° |
| 2026-04-28 15:27 | 48.67050 | 15.87390 | 31717 ft | 389 kts | 294° |
| 2026-04-28 15:27 | 48.68179 | 15.83687 | 32161 ft | 386 kts | 294° |
| 2026-04-28 15:28 | 48.69301 | 15.80003 | 32580 ft | 384 kts | 293° |
| 2026-04-28 15:28 | 48.70418 | 15.76331 | 32990 ft | 382 kts | 293° |
| 2026-04-28 15:28 | 48.71526 | 15.72685 | 33406 ft | 380 kts | 293° |
| 2026-04-28 15:28 | 48.72611 | 15.69099 | 33793 ft | 378 kts | 293° |
| 2026-04-28 15:29 | 48.73701 | 15.65486 | 34178 ft | 376 kts | 293° |
| 2026-04-28 15:29 | 48.74789 | 15.61878 | 34454 ft | 376 kts | 293° |
| 2026-04-28 15:29 | 48.75876 | 15.58269 | 34676 ft | 376 kts | 293° |
| 2026-04-28 15:29 | 48.76964 | 15.54659 | 34878 ft | 377 kts | 293° |
| 2026-04-28 15:30 | 48.78052 | 15.51042 | 35098 ft | 377 kts | 293° |
| 2026-04-28 15:30 | 48.79140 | 15.47421 | 35332 ft | 377 kts | 293° |
| 2026-04-28 15:30 | 48.80226 | 15.43797 | 35558 ft | 377 kts | 293° |
| 2026-04-28 15:30 | 48.81309 | 15.40178 | 35805 ft | 376 kts | 294° |
| 2026-04-28 15:31 | 48.82385 | 15.36577 | 36034 ft | 375 kts | 294° |
| 2026-04-28 15:31 | 48.83465 | 15.32956 | 36171 ft | 377 kts | 294° |
| 2026-04-28 15:31 | 48.84556 | 15.29297 | 36187 ft | 382 kts | 294° |
| 2026-04-28 15:32 | 48.86737 | 15.21956 | 36166 ft | 384 kts | 294° |
| 2026-04-28 15:32 | 48.88943 | 15.14517 | 36160 ft | 384 kts | 294° |
| 2026-04-28 15:33 | 48.91706 | 15.07632 | 36159 ft | 386 kts | 304° |
| 2026-04-28 15:33 | 48.94926 | 15.01104 | 36152 ft | 386 kts | 304° |
| 2026-04-28 15:34 | 48.98134 | 14.94555 | 36154 ft | 386 kts | 304° |
| 2026-04-28 15:34 | 49.01327 | 14.87987 | 36174 ft | 386 kts | 304° |
| 2026-04-28 15:35 | 49.04514 | 14.81391 | 36155 ft | 386 kts | 304° |
| 2026-04-28 15:35 | 49.08720 | 14.70974 | 36154 ft | 384 kts | 298° |
| 2026-04-28 15:36 | 50.56274 | 10.55953 | 36180 ft | 383 kts | 297° |
| 2026-04-28 15:36 | 50.57479 | 10.52199 | 36487 ft | 380 kts | 296° |
| 2026-04-28 15:36 | 50.58664 | 10.48474 | 36232 ft | 385 kts | 296° |
| 2026-04-28 15:37 | 50.61118 | 10.40821 | 36201 ft | 397 kts | 296° |
| 2026-04-28 15:37 | 50.63200 | 10.34320 | 36222 ft | 401 kts | 296° |
| 2026-04-28 15:38 | 50.66121 | 10.25188 | 36217 ft | 403 kts | 295° |
| 2026-04-28 15:38 | 50.68649 | 10.17274 | 36222 ft | 404 kts | 296° |
| 2026-04-28 15:39 | 50.71178 | 10.09361 | 36214 ft | 404 kts | 296° |
| 2026-04-28 15:39 | 50.73687 | 10.01506 | 35884 ft | 399 kts | 295° |
| 2026-04-28 15:40 | 50.74933 | 9.97601 | 35635 ft | 398 kts | 295° |
| 2026-04-28 15:40 | 50.76177 | 9.93718 | 35400 ft | 395 kts | 295° |
| 2026-04-28 15:40 | 50.77381 | 9.89830 | 34995 ft | 391 kts | 292° |
| 2026-04-28 15:40 | 50.78404 | 9.85831 | 34156 ft | 394 kts | 290° |
| 2026-04-28 15:41 | 50.79393 | 9.81760 | 33069 ft | 400 kts | 289° |
| 2026-04-28 15:41 | 50.80395 | 9.77648 | 32189 ft | 401 kts | 290° |
| 2026-04-28 15:41 | 50.81404 | 9.73549 | 31486 ft | 399 kts | 290° |
| 2026-04-28 15:41 | 50.82411 | 9.69480 | 30825 ft | 396 kts | 290° |
| 2026-04-28 15:42 | 50.83415 | 9.65424 | 30135 ft | 394 kts | 290° |
| 2026-04-28 15:42 | 50.84407 | 9.61412 | 29404 ft | 390 kts | 290° |
| 2026-04-28 15:42 | 50.85388 | 9.57436 | 28767 ft | 385 kts | 290° |
| 2026-04-28 15:42 | 50.86360 | 9.53483 | 27911 ft | 385 kts | 290° |
| 2026-04-28 15:43 | 50.87329 | 9.49523 | 27090 ft | 386 kts | 290° |
| 2026-04-28 15:43 | 50.88296 | 9.45572 | 26406 ft | 383 kts | 291° |
| 2026-04-28 15:43 | 50.89245 | 9.41709 | 25738 ft | 378 kts | 290° |
| 2026-04-28 15:43 | 50.90192 | 9.37843 | 25379 ft | 366 kts | 289° |
| 2026-04-28 15:44 | 50.91090 | 9.34169 | 24862 ft | 360 kts | 289° |
| 2026-04-28 15:44 | 50.91986 | 9.30490 | 24265 ft | 357 kts | 289° |
| 2026-04-28 15:44 | 50.92876 | 9.26821 | 23632 ft | 355 kts | 289° |
| 2026-04-28 15:44 | 50.93759 | 9.23183 | 22925 ft | 352 kts | 290° |
| 2026-04-28 15:45 | 50.94628 | 9.19595 | 22492 ft | 343 kts | 290° |
| 2026-04-28 15:45 | 50.95466 | 9.16135 | 22281 ft | 329 kts | 290° |
| 2026-04-28 15:45 | 50.96269 | 9.12813 | 22046 ft | 317 kts | 290° |
| 2026-04-28 15:45 | 50.97051 | 9.09571 | 21574 ft | 312 kts | 290° |
| 2026-04-28 15:46 | 50.97825 | 9.06366 | 21019 ft | 310 kts | 290° |
| 2026-04-28 15:46 | 50.98335 | 9.04245 | 20671 ft | 309 kts | 290° |
| 2026-04-28 15:46 | 50.99100 | 9.01062 | 20150 ft | 308 kts | 290° |
| 2026-04-28 15:46 | 50.99859 | 8.97898 | 19629 ft | 306 kts | 290° |
| 2026-04-28 15:47 | 51.00617 | 8.94743 | 19125 ft | 305 kts | 290° |
| 2026-04-28 15:47 | 51.01370 | 8.91605 | 18598 ft | 304 kts | 290° |
| 2026-04-28 15:47 | 51.02119 | 8.88474 | 18039 ft | 302 kts | 290° |
| 2026-04-28 15:47 | 51.02865 | 8.85349 | 17612 ft | 303 kts | 290° |
| 2026-04-28 15:48 | 51.03612 | 8.82213 | 17301 ft | 303 kts | 290° |
| 2026-04-28 15:48 | 51.04355 | 8.79089 | 17025 ft | 302 kts | 290° |
| 2026-04-28 15:48 | 51.05095 | 8.75971 | 16762 ft | 301 kts | 290° |
| 2026-04-28 15:48 | 51.05834 | 8.72860 | 16498 ft | 300 kts | 290° |
| 2026-04-28 15:49 | 51.06570 | 8.69755 | 16240 ft | 299 kts | 290° |
| 2026-04-28 15:49 | 51.07302 | 8.66662 | 15981 ft | 299 kts | 290° |
| 2026-04-28 15:49 | 51.08033 | 8.63569 | 15724 ft | 298 kts | 290° |
| 2026-04-28 15:49 | 51.08761 | 8.60482 | 15482 ft | 298 kts | 290° |
| 2026-04-28 15:50 | 51.09485 | 8.57405 | 15234 ft | 297 kts | 290° |
| 2026-04-28 15:50 | 51.10211 | 8.54322 | 14981 ft | 296 kts | 289° |
| 2026-04-28 15:50 | 51.10922 | 8.51298 | 14739 ft | 295 kts | 289° |
| 2026-04-28 15:50 | 51.11639 | 8.48240 | 14496 ft | 294 kts | 289° |
| 2026-04-28 15:51 | 51.12351 | 8.45194 | 14257 ft | 294 kts | 289° |
| 2026-04-28 15:51 | 51.13067 | 8.42139 | 14018 ft | 293 kts | 289° |
| 2026-04-28 15:51 | 51.13777 | 8.39100 | 13753 ft | 293 kts | 289° |
| 2026-04-28 15:51 | 51.14484 | 8.36062 | 13503 ft | 293 kts | 289° |
| 2026-04-28 15:52 | 51.15191 | 8.33024 | 13345 ft | 292 kts | 289° |
| 2026-04-28 15:52 | 51.15899 | 8.29984 | 13227 ft | 292 kts | 289° |
| 2026-04-28 15:52 | 51.16604 | 8.26950 | 13135 ft | 292 kts | 289° |
| 2026-04-28 15:52 | 51.17308 | 8.23916 | 12919 ft | 291 kts | 289° |
| 2026-04-28 15:53 | 51.18009 | 8.20888 | 12665 ft | 289 kts | 289° |
| 2026-04-28 15:53 | 51.18702 | 8.17894 | 12331 ft | 288 kts | 289° |
| 2026-04-28 15:53 | 51.19393 | 8.14899 | 11965 ft | 287 kts | 289° |
| 2026-04-28 15:53 | 51.20074 | 8.11950 | 11611 ft | 287 kts | 289° |
| 2026-04-28 15:54 | 51.20760 | 8.08968 | 11268 ft | 285 kts | 289° |
| 2026-04-28 15:54 | 51.21435 | 8.06037 | 11002 ft | 277 kts | 289° |
| 2026-04-28 15:54 | 51.22083 | 8.03216 | 10832 ft | 265 kts | 289° |
| 2026-04-28 15:54 | 51.22702 | 8.00520 | 10694 ft | 252 kts | 289° |
| 2026-04-28 15:55 | 51.23291 | 7.97948 | 10513 ft | 242 kts | 289° |
| 2026-04-28 15:55 | 51.23861 | 7.95458 | 10225 ft | 237 kts | 289° |
| 2026-04-28 15:55 | 51.24420 | 7.92995 | 9836 ft | 235 kts | 289° |
| 2026-04-28 15:55 | 51.24984 | 7.90518 | 9298 ft | 240 kts | 289° |
| 2026-04-28 15:56 | 51.25554 | 7.88022 | 8882 ft | 239 kts | 289° |
| 2026-04-28 15:56 | 51.26122 | 7.85529 | 8458 ft | 240 kts | 289° |
| 2026-04-28 15:56 | 51.26695 | 7.83012 | 8037 ft | 241 kts | 290° |
| 2026-04-28 15:56 | 51.27269 | 7.80491 | 7638 ft | 241 kts | 290° |
| 2026-04-28 15:57 | 51.27837 | 7.77984 | 7240 ft | 240 kts | 290° |
| 2026-04-28 15:57 | 51.28408 | 7.75468 | 6859 ft | 240 kts | 290° |
| 2026-04-28 15:57 | 51.28976 | 7.72964 | 6466 ft | 240 kts | 290° |
| 2026-04-28 15:57 | 51.29539 | 7.70462 | 6074 ft | 239 kts | 290° |
| 2026-04-28 15:58 | 51.30104 | 7.67964 | 5684 ft | 239 kts | 290° |
| 2026-04-28 15:58 | 51.30670 | 7.65466 | 5270 ft | 240 kts | 290° |
| 2026-04-28 15:58 | 51.31227 | 7.62991 | 4906 ft | 239 kts | 289° |
| 2026-04-28 15:58 | 51.31786 | 7.60498 | 4543 ft | 237 kts | 290° |
| 2026-04-28 15:59 | 51.32340 | 7.58027 | 4189 ft | 236 kts | 290° |
| 2026-04-28 15:59 | 51.32893 | 7.55561 | 3823 ft | 236 kts | 291° |
| 2026-04-28 15:59 | 51.33454 | 7.53075 | 3436 ft | 238 kts | 292° |
| 2026-04-28 15:59 | 51.34011 | 7.50598 | 3083 ft | 232 kts | 292° |
| 2026-04-28 16:00 | 51.34542 | 7.48220 | 2899 ft | 222 kts | 292° |
| 2026-04-28 16:00 | 51.35054 | 7.45953 | 2714 ft | 211 kts | 295° |
| 2026-04-28 16:00 | 51.35825 | 7.44065 | 2482 ft | 198 kts | 324° |
| 2026-04-28 16:00 | 51.37041 | 7.43192 | 2431 ft | 191 kts | 359° |
| 2026-04-28 16:01 | 51.38355 | 7.43402 | 2446 ft | 191 kts | 13° |
| 2026-04-28 16:01 | 51.39657 | 7.43821 | 2473 ft | 190 kts | 13° |
| 2026-04-28 16:01 | 51.40949 | 7.44209 | 2475 ft | 187 kts | 13° |
| 2026-04-28 16:01 | 51.42241 | 7.44572 | 2476 ft | 190 kts | 12° |
| 2026-04-28 16:02 | 51.43548 | 7.44934 | 2484 ft | 191 kts | 12° |
| 2026-04-28 16:02 | 51.44815 | 7.45280 | 2498 ft | 173 kts | 12° |
| 2026-04-28 16:02 | 51.45921 | 7.45641 | 2489 ft | 151 kts | 21° |
| 2026-04-28 16:02 | 51.46676 | 7.46637 | 2399 ft | 142 kts | 55° |
| 2026-04-28 16:03 | 51.47169 | 7.48006 | 2235 ft | 141 kts | 60° |
| 2026-04-28 16:03 | 51.47657 | 7.49389 | 2057 ft | 143 kts | 60° |
| 2026-04-28 16:03 | 51.48138 | 7.50753 | 1856 ft | 142 kts | 59° |
| 2026-04-28 16:03 | 51.48596 | 7.52051 | 1702 ft | 124 kts | 59° |
| 2026-04-28 16:04 | 51.49018 | 7.53248 | 1511 ft | 124 kts | 59° |
| 2026-04-28 16:04 | 51.49440 | 7.54448 | 1328 ft | 123 kts | 59° |
| 2026-04-28 16:04 | 51.49862 | 7.55647 | 1161 ft | 124 kts | 60° |
| 2026-04-28 16:04 | 51.50285 | 7.56848 | 1002 ft | 123 kts | 60° |
| 2026-04-28 16:05 | 51.50711 | 7.58047 | 794 ft | 124 kts | 60° |
| 2026-04-28 16:05 | 51.51131 | 7.59237 | 627 ft | 122 kts | 60° |
| 2026-04-28 16:05 | 51.51552 | 7.60426 | 472 ft | 122 kts | 59° |
| 2026-04-28 16:05 | 51.51953 | 7.61563 | 417 ft | 97 kts | 60° |
| 2026-04-28 16:06 | 51.52138 | 7.62088 | 423 ft | 27 kts | 60° |
| 2026-04-28 16:06 | 51.52192 | 7.62244 | 417 ft | 7 kts | 65° |
| 2026-04-28 16:06 | 51.52174 | 7.62326 | 425 ft | 10 kts | 149° |
| 2026-04-28 16:06 | 51.52112 | 7.62377 | 417 ft | 6 kts | 153° |
| 2026-04-28 16:07 | 51.52072 | 7.62395 | 422 ft | 7 kts | 191° |
| 2026-04-28 16:07 | 51.52032 | 7.62338 | 417 ft | 9 kts | 242° |
| 2026-04-28 16:07 | 51.51952 | 7.62102 | 415 ft | 15 kts | 239° |
| 2026-04-28 16:08 | 51.51896 | 7.61946 | 418 ft | 18 kts | 240° |
| 2026-04-28 16:08 | 51.51831 | 7.61762 | 422 ft | 20 kts | 240° |
| 2026-04-28 16:08 | 51.51756 | 7.61547 | 431 ft | 24 kts | 240° |
| 2026-04-28 16:09 | 51.51611 | 7.61133 | 428 ft | 15 kts | 240° |
| 2026-04-28 16:09 | 51.51572 | 7.61061 | 434 ft | 10 kts | 200° |
| 2026-04-28 16:09 | 51.51511 | 7.61066 | 431 ft | 9 kts | 153° |
| 2026-04-28 16:10 | 51.51469 | 7.61116 | 440 ft | 0 kts | 143° |
| 2026-04-28 16:10 | 51.51469 | 7.61117 | 433 ft | 0 kts | 143° |